Station: Pound Creek  

  Atmospheric Gas Attenuation - ITU Rec 676-11   ----------------- dB/100km -----------------
Date Time Temp RH % AH g/m3 Dew Point Wind Direction Speed kph Gust kph Barometer mB Rainfall Since 9am 24GHz 47GHz 76GHz 122GHz 134GHz 241GHz
08/05 12:30 13.8 80 9.53 10.4 37 61 1021.4 0.2 21.6 27.7 44.0 115.5 111.6 384.7
08/05 12:20 13.7 85 10.07 11.2 43 48 1021.2 0.2 22.7 28.7 46.3 121.7 119.3 411.3
08/05 12:10 13.9 84 10.07 11.2 32 39 1021.5 0.2 22.7 28.6 46.2 121.4 119.0 410.4
08/05 12:00 14.7 81 10.2 11.5 28 43 1021.4 0.2 23.0 28.6 46.3 121.6 119.5 412.4
08/05 11:50 14.1 79 9.59 10.5 33 39 1021.6 0.2 21.7 27.8 44.1 115.7 112.0 386.1
08/05 11:40 13.6 84 9.89 10.9 33 41 1021.6 0.2 22.3 28.4 45.6 119.9 116.9 403.2
08/05 11:30 15.4 69 9.07 9.7 30 43 1021.4 0.2 20.5 26.5 41.2 108.2 103.2 355.5
08/05 11:20 14.9 71 9.05 9.7 28 32 1021.4 0.2 20.5 26.6 41.4 108.7 103.6 356.8
08/05 11:10 15 71 9.1 9.8 37 43 1021.5 0.2 20.6 26.7 41.6 109.1 104.2 358.7
08/05 11:00 15.5 74 9.78 10.9 28 41 1021.4 0.2 22.0 27.6 44.1 115.8 112.6 388.2
08/05 10:50 15 75 9.62 10.6 30 37 1021.3 0 21.7 27.5 43.7 114.7 111.1 383.1
08/05 10:40 15.3 69 9.01 9.8 1021.1 0 20.4 26.4 41.0 107.7 102.5 353.0
08/05 10:30 14.9 74 9.43 10.3 1021.1 0 21.3 27.2 42.9 112.8 108.7 374.5
08/05 10:20 14.6 77 9.64 10.6 1021.1 0 21.8 27.7 44.0 115.5 111.9 385.9
08/05 10:10 14.8 71 8.99 9.6 1021.1 0 20.4 26.5 41.2 108.1 102.9 354.4
08/05 10:00 15 68 8.72 9.1 1020.9 0 19.8 26.0 40.0 104.9 99.1 341.0
08/05 09:50 15.2 70 9.09 9.9 1020.8 0 20.6 26.6 41.4 108.6 103.7 357.1
08/05 09:40 14.9 69 8.79 9.4 1020.6 0 19.9 26.2 40.3 105.8 100.1 344.5
08/05 09:30 14.8 69 8.74 9.2 1020.5 0 19.8 26.1 40.2 105.4 99.6 342.6
08/05 09:20 14.7 68 8.56 9 1020.5 0 19.5 25.8 39.5 103.6 97.3 334.8
08/05 09:10 14.8 75 9.5 10.4 1020.5 0 21.5 27.3 43.3 113.6 109.7 378.1
08/05 09:00 14.1 77 9.35 10.1 1020.5 0 21.2 27.3 43.0 113.0 108.7 374.4
08/05 08:50 13.5 77 9.01 9.5 1020.2 8.4 20.5 26.9 41.9 110.0 104.9 361.0
08/05 08:40 14.1 77 9.35 10.1 1019.7 8.4 21.2 27.3 43.0 112.9 108.6 374.1
08/05 08:30 14.5 74 9.2 9.9 1019.5 8.4 20.8 26.9 42.1 110.6 106.0 365.1
08/05 08:20 14.1 76 9.22 9.9 1019.4 8.4 20.9 27.1 42.4 111.4 106.8 367.9
08/05 08:10 14.2 73 8.91 9.4 1019.3 8.4 20.2 26.5 41.1 107.9 102.5 352.8
08/05 08:00 14.5 75 9.33 10.1 1019.1 8.4 21.1 27.1 42.7 112.0 107.7 371.1
08/05 07:50 14.1 75 9.1 9.7 1019 8.4 20.6 26.8 41.9 110.1 105.2 362.1
08/05 07:40 14 79 9.53 10.4 1019 8.4 21.6 27.6 43.8 114.9 111.1 383.0
08/05 07:30 14 76 9.17 9.8 1018.7 8.4 20.8 27.0 42.3 110.9 106.2 365.8
08/05 07:20 13.9 78 9.35 10.1 1018.6 8.4 21.2 27.3 43.0 113.0 108.8 374.8
08/05 07:10 13.8 77 9.17 9.8 1018.5 8.4 20.8 27.0 42.4 111.2 106.5 366.7
08/05 07:00 13.6 78 9.18 9.8 1018.4 8.4 20.8 27.1 42.5 111.6 106.9 368.0
08/05 06:50 14.1 73 8.86 9.3 1018.3 8.4 20.1 26.4 40.9 107.4 101.9 350.7
08/05 06:40 14 76 9.17 9.8 1018.2 8.4 20.8 27.0 42.2 110.9 106.2 365.6
08/05 06:30 13.6 81 9.53 10.4 1018.3 8.4 21.6 27.7 43.9 115.4 111.6 384.7
08/05 06:20 13.9 80 9.59 10.5 1018.1 8.4 21.7 27.7 44.0 115.6 112.0 386.1
08/05 06:10 13.8 80 9.53 10.4 1017.9 8.4 21.6 27.6 43.8 115.1 111.3 383.6
08/05 06:00 13.7 81 9.59 10.5 1017.8 8.4 21.7 27.7 44.1 115.9 112.3 387.0
08/05 05:50 13.7 84 9.95 11 1017.8 8.4 22.5 28.3 45.6 120.0 117.3 404.4
08/05 05:40 13.1 86 9.81 10.9 1017.5 8.4 22.2 28.3 45.4 119.3 116.2 400.6
08/05 05:30 13.3 87 10.05 11.2 1017.6 8.4 22.7 28.6 46.3 121.7 119.3 411.3
08/05 05:20 13.6 88 10.36 11.6 1017.4 8.2 23.4 29.1 47.4 124.7 123.1 424.9
08/05 05:10 14 83 10.01 11.1 1017.4 8.2 22.6 28.3 45.7 120.1 117.6 405.6
08/05 05:00 14.3 81 9.95 11.1 1017.3 8.2 22.4 28.1 45.3 119.0 116.3 401.1
08/05 04:50 13.9 83 9.95 11 1017.2 8.2 22.5 28.3 45.5 119.6 116.9 403.2
08/05 04:40 13.7 86 10.18 11.4 1017.3 8 23.0 28.7 46.6 122.5 120.4 415.5
08/05 04:30 13.8 85 10.13 11.3 1017.2 8 22.9 28.6 46.3 121.8 119.6 412.4
08/05 04:20 13.8 85 10.13 11.3 1017.1 8 22.9 28.6 46.3 121.8 119.5 412.4
08/05 04:10 13.7 89 10.54 11.9 1016.9 8 23.7 29.3 48.1 126.6 125.5 433.1
08/05 04:00 14 85 10.25 11.5 1017 8 23.1 28.7 46.7 122.8 120.9 417.2
08/05 03:50 13.6 88 10.36 11.6 1016.7 8 23.4 29.0 47.4 124.7 123.1 424.7
08/05 03:40 13.9 86 10.31 11.6 1016.8 8 23.2 28.9 47.0 123.6 121.9 420.6
08/05 03:30 14.1 80 9.71 10.7 1016.7 8 21.9 27.8 44.3 116.5 113.2 390.4
08/05 03:20 13.8 84 10.01 11.1 1016.7 8 22.6 28.4 45.8 120.4 117.8 406.4
08/05 03:10 13.7 85 10.07 11.2 1016.5 8 22.7 28.5 46.1 121.2 118.8 409.8
08/05 03:00 13.9 84 10.07 11.2 1016.5 8 22.7 28.4 46.0 120.9 118.5 408.8
08/05 02:50 13.8 83 9.89 10.9 1016.4 8 22.3 28.2 45.3 119.0 116.1 400.5
08/05 02:40 13.8 83 9.89 10.9 1016.3 8 22.3 28.1 45.2 119.0 116.1 400.5
08/05 02:30 13.7 84 9.95 11 1016.3 8 22.5 28.3 45.6 119.8 117.1 403.9
08/05 02:20 13.7 82 9.71 10.8 1016.4 8 22.0 27.9 44.6 117.1 113.8 392.3
08/05 02:10 13 90 10.21 11.4 1016.4 8 23.1 29.0 47.1 123.9 121.9 420.4
08/05 02:00 13.2 89 10.22 11.4 1016.6 8 23.1 28.9 47.0 123.7 121.7 419.9
08/05 01:50 13.2 86 9.88 11 1016.5 7.8 22.4 28.3 45.6 119.8 116.9 403.2
08/05 01:40 13.2 92 10.56 11.9 1016.7 7.8 23.8 29.5 48.5 127.6 126.6 436.8
08/05 01:30 13.1 91 10.38 11.7 1016.6 7.6 23.4 29.2 47.8 125.7 124.1 428.4
08/05 01:20 13 90 10.21 11.4 1016.6 7.4 23.1 29.0 47.1 123.9 121.9 420.5
08/05 01:10 13.2 91 10.45 11.7 1016.6 7.2 23.6 29.3 48.0 126.3 125.0 431.3
08/05 01:00 13.3 89 10.28 11.5 1016.8 7 23.2 29.0 47.2 124.2 122.4 422.4
08/05 00:50 13.6 88 10.36 11.6 1016.7 7 23.4 29.0 47.4 124.7 123.1 424.7
08/05 00:40 13.4 89 10.35 11.6 1016.7 7 23.4 29.1 47.5 124.9 123.2 425.3
08/05 00:30 13.1 89 10.16 11.3 1016.9 7 23.0 28.9 46.8 123.2 121.1 417.6
08/05 00:20 13.1 90 10.27 11.5 1017.1 7 23.2 29.1 47.3 124.5 122.6 423.1
08/05 00:10 13.3 89 10.28 11.5 1017 7 23.2 29.0 47.2 124.3 122.4 422.5
08/05 00:00 13 91 10.32 11.6 1017.2 7 23.3 29.2 47.6 125.2 123.5 426.2
07/05 23:50 13.1 91 10.38 11.6 1017.5 6.8 23.4 29.3 47.8 125.8 124.2 428.7
07/05 23:40 13 90 10.21 11.4 1017.5 6.6 23.1 29.0 47.1 124.0 122.0 420.8
07/05 23:30 13 90 10.21 11.4 1017.5 6.6 23.1 29.0 47.1 124.0 122.0 420.8
07/05 23:20 12.9 92 10.37 11.6 1017.7 6.6 23.4 29.3 47.9 126.0 124.4 429.4
07/05 23:10 12.8 92 10.31 11.5 1017.8 6.6 23.3 29.3 47.7 125.5 123.8 427.0
07/05 23:00 12.6 92 10.18 11.3 1017.9 6.6 23.0 29.1 47.3 124.3 122.2 421.6
07/05 22:50 12.3 92 9.99 11 1018 6.4 22.6 28.9 46.6 122.6 120.0 413.8
07/05 22:40 11.9 93 9.85 10.8 1018.2 6.4 22.4 28.8 46.3 121.7 118.7 409.1
07/05 22:30 12 94 10.02 11.1 1018.4 6.2 22.7 29.0 47.0 123.5 121.0 417.1
07/05 22:20 11.4 94 9.65 10.4 1018.6 6 22.0 28.6 45.7 120.2 116.6 401.9
07/05 22:10 11.5 94 9.71 10.5 1018.6 6 22.1 28.7 45.9 120.7 117.3 404.3
07/05 22:00 11 94 9.41 10.1 1018.7 5.6 21.5 28.3 44.9 118.0 113.8 392.0
07/05 21:50 11.6 94 9.77 10.6 1018.8 5.4 22.2 28.8 46.1 121.3 118.0 406.9
07/05 21:40 11 95 9.51 10.2 1018.9 5.4 21.7 28.5 45.4 119.2 115.3 397.1
07/05 21:30 10.8 94 9.29 9.9 1019 5 21.2 28.2 44.5 117.0 112.4 387.2
07/05 21:20 10.7 93 9.14 9.7 1019 4.8 20.9 28.0 44.0 115.4 110.5 380.2
07/05 21:10 10.9 93 9.25 9.8 1019 4.6 21.1 28.1 44.3 116.4 111.7 384.7
07/05 21:00 11.1 93 9.37 10 1018.9 3.6 21.4 28.2 44.7 117.4 113.1 389.6
07/05 20:50 11.3 90 9.18 9.8 1019 3.4 21.0 27.8 43.8 115.0 110.2 379.3
07/05 20:40 11.2 90 9.12 9.6 1018.8 2.8 20.8 27.8 43.6 114.4 109.5 376.8
07/05 20:30 11.1 93 9.37 10 1019 2.6 21.4 28.2 44.7 117.5 113.1 389.6
07/05 20:20 11.1 93 9.37 10 1019.1 2.6 21.4 28.2 44.7 117.5 113.1 389.7
07/05 20:10 10.9 92 9.15 9.6 1019.3 2.4 20.9 27.9 43.9 115.3 110.4 379.8
07/05 20:00 11 91 9.11 9.6 1019.6 2.4 20.8 27.8 43.7 114.7 109.7 377.5

Last Refresh: 08-May-2026 12:07:28

Bureau of Meteorology